Dobrodošli na spletni strani vremenske postaje Senovo. Vse informacije so informativnega značaja, saj vremenska postaja ni del državne mreže meteoroloških postaj. OBVESTILO: Letni količini padavin navedeni na spletni strani je potrebno prišteti 98,1 mm, zaradi izgube podatkov.


Dež Od: 15-12-2017 00:00 Do: 23:59 Opozorilo za: Dež Stopnja: Rumena info button
Veter Od: 15-12-2017 00:00 Do: 17:59 Opozorilo za: Veter Stopnja: Rumena info button

Pogled proti Armezu več informacij Pogled proti Armezu


Lisca več informacij Lisca


Radar strel več informacij blitzortung!


opozorilo za Dež več informacij rain snow radar


Obiščite še:

Template documentation
and downloads

And another site



Weather Underground, zgodovina - Tekstovno

Dnevni povzetek za Avgust 28, 2017 Enote:  Metrično    Angleško   Obe
« Predhodni Dan
Naslednji Dan »
Dnevni Tedenski Mesečni Letni Po meri
  Višja: Nižja: Povprečje:
Temperatura: 29.4 °C 16.1 °C 21.4 °C
Točka rosišča: 18.9 °C 14.1 °C 16.6 °C
Vlažnost: 94 % 45 % 76 %
Hitrost vetra: 9.2 km/h 0.0 km/h 2.6 km/h
Sunki vetra: 20.1 km/h - -
Veter:- - South
Zračni tlak: 1019.9 hPa 1015.1 hPa -
Padavine: 7.6 mm    
Historical Graphs
 
 
Tabelarni podarki za Avgust 28, 2017
Čas Temperatura Točka rosišča Zračni tlak Veter Hitrost vetra Sunki vetra Vlažnost Intenziteta padavin (urna)
00:00 23.6 °C 14.1 °C 1016.8 hPa ENE 3.9 km/h 10.5 km/h 55 % 0.0 mm
00:05 23.5 °C 14.2 °C 1016.8 hPa NNE 2.9 km/h 5.8 km/h 56 % 0.0 mm
00:10 23.3 °C 14.6 °C 1016.8 hPa NNE 2.9 km/h 6.9 km/h 58 % 0.0 mm
00:15 23.1 °C 14.4 °C 1016.8 hPa East 2.6 km/h 6.9 km/h 58 % 0.0 mm
00:20 22.9 °C 14.4 °C 1016.8 hPa South 4.2 km/h 10.1 km/h 59 % 0.0 mm
00:25 22.8 °C 14.6 °C 1016.8 hPa SW 5.6 km/h 10.1 km/h 60 % 0.0 mm
00:30 22.7 °C 14.6 °C 1016.8 hPa SSW 5.0 km/h 8.7 km/h 60 % 0.0 mm
00:35 22.6 °C 14.7 °C 1018.2 hPa South 3.4 km/h 8.7 km/h 61 % 0.0 mm
00:40 22.5 °C 14.8 °C 1018.2 hPa SSW 2.6 km/h 7.6 km/h 62 % 0.0 mm
00:45 22.3 °C 14.9 °C 1018.2 hPa SW 3.1 km/h 6.1 km/h 63 % 0.0 mm
00:50 22.1 °C 15.2 °C 1018.2 hPa SW 3.4 km/h 11.6 km/h 65 % 0.0 mm
00:55 22.0 °C 15.1 °C 1018.2 hPa SSW 4.8 km/h 11.6 km/h 65 % 0.0 mm
01:00 21.9 °C 15.3 °C 1018.2 hPa South 3.1 km/h 9.7 km/h 66 % 0.0 mm
01:05 21.7 °C 15.3 °C 1016.8 hPa West 0.8 km/h 7.9 km/h 67 % 0.0 mm
01:10 21.6 °C 15.2 °C 1016.8 hPa WNW 3.2 km/h 7.9 km/h 67 % 0.0 mm
01:15 21.6 °C 15.4 °C 1016.8 hPa WNW 3.5 km/h 7.6 km/h 68 % 0.0 mm
01:20 21.4 °C 15.5 °C 1018.2 hPa NW 0.6 km/h 4.0 km/h 69 % 0.0 mm
01:25 21.2 °C 15.5 °C 1018.2 hPa NE 0.3 km/h 4.7 km/h 70 % 0.0 mm
01:30 21.1 °C 15.4 °C 1018.2 hPa NE 0.5 km/h 4.7 km/h 70 % 0.0 mm
01:35 21.1 °C 15.6 °C 1018.2 hPa NE 1.3 km/h 5.0 km/h 71 % 0.0 mm
01:40 21.0 °C 15.6 °C 1018.2 hPa NNE 1.9 km/h 5.0 km/h 71 % 0.0 mm
01:45 20.9 °C 15.7 °C 1018.2 hPa ESE 1.8 km/h 6.4 km/h 72 % 0.0 mm
01:50 20.9 °C 15.9 °C 1018.2 hPa SE 2.1 km/h 6.4 km/h 73 % 0.0 mm
01:55 20.9 °C 15.9 °C 1018.2 hPa SE 1.6 km/h 5.8 km/h 73 % 0.0 mm
02:00 20.9 °C 16.1 °C 1018.2 hPa East 1.4 km/h 4.0 km/h 74 % 0.0 mm
02:05 20.8 °C 16.0 °C 1018.2 hPa East 1.4 km/h 4.0 km/h 74 % 0.0 mm
02:10 20.8 °C 16.0 °C 1018.2 hPa ENE 1.4 km/h 5.5 km/h 74 % 0.0 mm
02:15 20.8 °C 16.0 °C 1018.2 hPa East 1.6 km/h 5.5 km/h 74 % 0.0 mm
02:20 20.8 °C 16.0 °C 1018.2 hPa SSW 2.4 km/h 5.5 km/h 74 % 0.0 mm
02:25 20.7 °C 15.9 °C 1018.2 hPa SW 3.7 km/h 5.5 km/h 74 % 0.0 mm
02:30 20.6 °C 16.0 °C 1018.2 hPa WNW 2.1 km/h 5.0 km/h 75 % 0.0 mm
02:35 20.5 °C 15.9 °C 1018.2 hPa NNW 0.5 km/h 4.3 km/h 75 % 0.0 mm
02:40 20.4 °C 15.8 °C 1018.2 hPa NNE 0.2 km/h 3.5 km/h 75 % 0.0 mm
02:45 20.3 °C 15.9 °C 1018.2 hPa NW 1.1 km/h 5.0 km/h 76 % 0.0 mm
02:50 20.1 °C 15.7 °C 1018.2 hPa WNW 1.6 km/h 5.0 km/h 76 % 0.0 mm
02:55 19.9 °C 15.9 °C 1018.2 hPa West 0.5 km/h 3.5 km/h 78 % 0.0 mm
03:00 19.7 °C 15.8 °C 1018.2 hPa West 0.2 km/h 4.0 km/h 78 % 0.0 mm
03:05 19.6 °C 15.7 °C 1018.2 hPa West 0.8 km/h 4.0 km/h 78 % 0.0 mm
03:10 19.4 °C 15.7 °C 1018.2 hPa WNW 1.6 km/h 4.3 km/h 79 % 0.0 mm
03:15 19.3 °C 15.6 °C 1018.2 hPa NW 0.8 km/h 4.3 km/h 79 % 0.0 mm
03:20 19.2 °C 15.4 °C 1018.2 hPa SSE 1.6 km/h 4.7 km/h 79 % 0.0 mm
03:25 19.1 °C 15.4 °C 1018.2 hPa South 2.1 km/h 4.7 km/h 79 % 0.0 mm
03:30 18.9 °C 15.6 °C 1018.2 hPa NNW 1.9 km/h 5.5 km/h 81 % 0.0 mm
03:35 18.8 °C 15.4 °C 1018.2 hPa WNW 3.2 km/h 5.5 km/h 81 % 0.0 mm
03:40 18.7 °C 15.4 °C 1018.2 hPa West 1.8 km/h 5.5 km/h 81 % 0.0 mm
03:45 18.6 °C 15.4 °C 1018.2 hPa NNW 0.5 km/h 4.0 km/h 82 % 0.0 mm
03:50 18.5 °C 15.4 °C 1018.2 hPa NW 1.0 km/h 4.0 km/h 82 % 0.0 mm
03:55 18.4 °C 15.3 °C 1018.2 hPa West 1.3 km/h 4.0 km/h 82 % 0.0 mm
04:00 18.2 °C 15.3 °C 1018.2 hPa WSW 1.1 km/h 3.2 km/h 83 % 0.0 mm
04:05 18.2 °C 15.3 °C 1018.2 hPa West 0.6 km/h 2.6 km/h 83 % 0.0 mm
04:10 18.0 °C 15.1 °C 1018.2 hPa WSW 0.2 km/h 1.8 km/h 83 % 0.0 mm
04:15 17.9 °C 14.9 °C 1018.2 hPa Calm     83 % 0.0 mm
04:20 17.9 °C 14.9 °C 1018.2 hPa Calm     83 % 0.0 mm
04:25 17.7 °C 14.9 °C 1018.2 hPa Calm     84 % 0.0 mm
04:30 17.7 °C 15.2 °C 1018.2 hPa Calm     85 % 0.0 mm
04:35 17.5 °C 14.8 °C 1018.2 hPa Calm     84 % 0.0 mm
04:40 17.4 °C 14.8 °C 1018.2 hPa Calm     85 % 0.0 mm
04:45 17.4 °C 14.8 °C 1018.2 hPa SW 0.6 km/h 3.2 km/h 85 % 0.0 mm
04:50 17.3 °C 14.8 °C 1018.2 hPa SW 0.6 km/h 3.2 km/h 85 % 0.0 mm
04:55 17.2 °C 14.8 °C 1018.2 hPa Calm     86 % 0.0 mm
05:00 17.1 °C 14.7 °C 1018.2 hPa WNW 0.2 km/h 2.6 km/h 86 % 0.0 mm
05:05 17.0 °C 14.7 °C 1018.2 hPa WNW 0.2 km/h 2.6 km/h 86 % 0.0 mm
05:10 16.9 °C 14.7 °C 1018.2 hPa Calm     87 % 0.0 mm
05:16 16.8 °C 14.6 °C 1018.2 hPa Calm     87 % 0.0 mm
05:21 16.8 °C 14.8 °C 1018.2 hPa West 0.5 km/h 4.0 km/h 88 % 0.0 mm
05:26 16.7 °C 14.7 °C 1018.2 hPa West 0.5 km/h 4.0 km/h 88 % 0.0 mm
05:31 16.7 °C 14.7 °C 1018.2 hPa Calm     88 % 0.0 mm
05:36 16.6 °C 14.6 °C 1018.2 hPa Calm     88 % 0.0 mm
05:41 16.5 °C 14.5 °C 1018.2 hPa SSW 0.2 km/h 3.5 km/h 88 % 0.0 mm
05:51 16.5 °C 14.5 °C 1018.2 hPa SW 0.8 km/h 3.2 km/h 88 % 0.0 mm
05:56 16.4 °C 14.4 °C 1018.2 hPa WSW 0.5 km/h 3.5 km/h 88 % 0.0 mm
06:01 16.3 °C 14.3 °C 1018.2 hPa WSW 0.8 km/h 3.5 km/h 88 % 0.0 mm
06:06 16.3 °C 14.5 °C 1018.2 hPa WSW 0.5 km/h 3.2 km/h 89 % 0.0 mm
06:11 16.2 °C 14.2 °C 1018.2 hPa WSW 0.2 km/h 2.1 km/h 88 % 0.0 mm
06:16 16.1 °C 14.3 °C 1018.2 hPa Calm     89 % 0.0 mm
06:21 16.1 °C 14.3 °C 1018.2 hPa Calm     89 % 0.0 mm
06:26 16.1 °C 14.3 °C 1018.2 hPa SSW 0.2 km/h 3.5 km/h 89 % 0.0 mm
06:31 16.1 °C 14.3 °C 1018.2 hPa SSW 0.3 km/h 3.5 km/h 89 % 0.0 mm
06:36 16.1 °C 14.3 °C 1018.2 hPa North 0.2 km/h   89 % 0.0 mm
06:41 16.1 °C 14.3 °C 1018.2 hPa Calm     89 % 0.0 mm
06:46 16.1 °C 14.3 °C 1018.2 hPa Calm     89 % 0.0 mm
06:51 16.1 °C 14.4 °C 1018.2 hPa WNW 0.3 km/h 3.2 km/h 90 % 0.0 mm
06:56 16.1 °C 14.4 °C 1018.2 hPa WNW 0.3 km/h 3.2 km/h 90 % 0.0 mm
07:01 16.2 °C 14.6 °C 1018.2 hPa WNW 0.2 km/h 2.1 km/h 90 % 0.0 mm
07:06 16.2 °C 14.6 °C 1018.2 hPa WNW 0.2 km/h 2.1 km/h 90 % 0.0 mm
07:11 16.3 °C 14.7 °C 1018.2 hPa Calm     90 % 0.0 mm
07:16 16.4 °C 14.8 °C 1018.2 hPa Calm     90 % 0.0 mm
07:18 16.5 °C 14.8 °C 1018.2 hPa Calm     90 % 0.0 mm
07:24 16.6 °C 14.9 °C 1018.2 hPa Calm     90 % 0.0 mm
07:29 16.8 °C 15.2 °C 1018.2 hPa Calm   2.6 km/h 90 % 0.0 mm
07:34 16.9 °C 15.2 °C 1018.2 hPa WNW 0.5 km/h 2.6 km/h 90 % 0.0 mm
07:39 17.1 °C 15.4 °C 1018.2 hPa WNW 0.5 km/h 2.6 km/h 90 % 0.0 mm
07:44 17.3 °C 15.7 °C 1018.2 hPa Calm   1.4 km/h 90 % 0.0 mm
07:49 17.5 °C 15.8 °C 1018.2 hPa Calm   1.4 km/h 90 % 0.0 mm
07:54 17.7 °C 16.1 °C 1018.2 hPa Calm     90 % 0.0 mm
07:59 17.9 °C 16.2 °C 1018.2 hPa WSW 0.2 km/h 1.8 km/h 90 % 0.0 mm
08:04 18.2 °C 16.3 °C 1018.2 hPa WSW 0.2 km/h 1.8 km/h 89 % 0.0 mm
08:09 18.4 °C 16.6 °C 1018.2 hPa WSW 0.5 km/h 2.6 km/h 89 % 0.0 mm
08:14 19.0 °C 17.2 °C 1018.2 hPa WSW 0.5 km/h 2.6 km/h 89 % 0.0 mm
08:19 19.3 °C 17.3 °C 1018.2 hPa ESE 0.2 km/h 3.5 km/h 88 % 0.0 mm
08:24 19.6 °C 17.4 °C 1018.2 hPa ESE 0.3 km/h 3.5 km/h 87 % 0.0 mm
08:29 19.9 °C 17.7 °C 1018.2 hPa ESE 0.3 km/h 2.6 km/h 87 % 0.0 mm
08:34 20.3 °C 17.7 °C 1018.2 hPa ESE 0.2 km/h 2.6 km/h 85 % 0.0 mm
08:39 20.5 °C 17.9 °C 1018.2 hPa ESE 0.2 km/h 2.6 km/h 85 % 0.0 mm
08:44 20.9 °C 17.7 °C 1018.2 hPa ESE 0.2 km/h 2.6 km/h 82 % 0.0 mm
08:49 21.2 °C 17.8 °C 1018.2 hPa Calm     81 % 0.0 mm
08:54 21.3 °C 17.7 °C 1018.2 hPa Calm     80 % 0.0 mm
08:59 21.5 °C 17.7 °C 1018.2 hPa ESE 0.3 km/h 3.5 km/h 79 % 0.0 mm
09:04 21.8 °C 17.8 °C 1018.2 hPa ESE 1.0 km/h 3.5 km/h 78 % 0.0 mm
09:05 21.8 °C 17.8 °C 1018.2 hPa ESE 1.0 km/h 3.5 km/h 78 % 0.0 mm
09:11 22.1 °C 17.9 °C 1018.2 hPa SE 1.4 km/h 4.3 km/h 77 % 0.0 mm
09:15 22.3 °C 17.9 °C 1018.2 hPa SE 1.8 km/h 4.3 km/h 76 % 0.0 mm
09:21 22.6 °C 17.9 °C 1018.2 hPa SSE 1.3 km/h 4.3 km/h 75 % 0.0 mm
09:26 22.8 °C 18.1 °C 1018.2 hPa SE 1.4 km/h 4.7 km/h 75 % 0.0 mm
09:31 23.2 °C 18.3 °C 1018.2 hPa ESE 1.8 km/h 4.7 km/h 74 % 0.0 mm
09:36 23.5 °C 18.2 °C 1018.2 hPa ESE 1.4 km/h 4.0 km/h 72 % 0.0 mm
09:41 23.6 °C 18.1 °C 1018.2 hPa SE 1.1 km/h 4.3 km/h 71 % 0.0 mm
09:46 23.9 °C 18.3 °C 1018.2 hPa SE 1.8 km/h 4.3 km/h 71 % 0.0 mm
09:51 24.1 °C 18.3 °C 1018.2 hPa SE 1.1 km/h 5.5 km/h 70 % 0.0 mm
09:56 24.4 °C 18.6 °C 1018.2 hPa SE 1.8 km/h 6.4 km/h 70 % 0.0 mm
10:01 24.6 °C 18.6 °C 1018.2 hPa South 3.4 km/h 6.4 km/h 69 % 0.0 mm
10:06 24.8 °C 18.7 °C 1018.2 hPa South 3.4 km/h 7.6 km/h 69 % 0.0 mm
10:11 25.1 °C 18.8 °C 1018.2 hPa SE 3.4 km/h 7.6 km/h 68 % 0.0 mm
10:16 25.3 °C 18.9 °C 1018.2 hPa SE 3.2 km/h 7.6 km/h 68 % 0.0 mm
10:21 25.5 °C 17.9 °C 1018.2 hPa ESE 4.2 km/h 9.3 km/h 63 % 0.0 mm
10:26 25.7 °C 18.4 °C 1018.2 hPa ESE 5.1 km/h 10.5 km/h 64 % 0.0 mm
10:31 25.9 °C 18.1 °C 1018.2 hPa ESE 6.6 km/h 12.6 km/h 62 % 0.0 mm
10:36 25.9 °C 18.1 °C 1018.2 hPa ESE 7.9 km/h 13.0 km/h 62 % 0.0 mm
10:41 26.0 °C 18.2 °C 1018.2 hPa ESE 7.6 km/h 13.0 km/h 62 % 0.0 mm
10:46 25.8 °C 17.7 °C 1018.2 hPa East 7.9 km/h 12.2 km/h 61 % 0.0 mm
10:51 25.7 °C 17.6 °C 1018.2 hPa ESE 7.7 km/h 13.0 km/h 61 % 0.0 mm
10:56 25.8 °C 17.4 °C 1018.2 hPa ESE 6.6 km/h 13.0 km/h 60 % 0.0 mm
11:01 26.0 °C 17.4 °C 1018.2 hPa ESE 6.4 km/h 12.6 km/h 59 % 0.0 mm
11:06 26.1 °C 17.2 °C 1018.2 hPa East 6.0 km/h 11.9 km/h 58 % 0.0 mm
11:11 26.2 °C 17.3 °C 1018.2 hPa East 5.6 km/h 13.0 km/h 58 % 0.0 mm
11:16 26.3 °C 17.7 °C 1018.2 hPa East 5.5 km/h 13.0 km/h 59 % 0.0 mm
11:21 26.5 °C 17.8 °C 1018.2 hPa ESE 6.3 km/h 11.1 km/h 59 % 0.0 mm
11:26 26.5 °C 17.3 °C 1018.2 hPa East 6.9 km/h 13.0 km/h 57 % 0.0 mm
11:31 26.5 °C 17.3 °C 1018.2 hPa East 6.8 km/h 13.0 km/h 57 % 0.0 mm
11:36 26.7 °C 17.2 °C 1018.2 hPa ESE 7.4 km/h 13.7 km/h 56 % 0.0 mm
11:41 26.9 °C 17.1 °C 1018.2 hPa SE 6.0 km/h 13.7 km/h 55 % 0.0 mm
11:46 27.1 °C 17.0 °C 1018.8 hPa East 4.7 km/h 10.1 km/h 54 % 0.0 mm
11:51 27.0 °C 16.6 °C 1018.8 hPa ENE 6.1 km/h 10.1 km/h 53 % 0.0 mm
11:56 27.2 °C 17.1 °C 1018.8 hPa ENE 5.8 km/h 10.8 km/h 54 % 0.0 mm
12:01 27.3 °C 17.2 °C 1018.2 hPa East 4.0 km/h 10.8 km/h 54 % 0.0 mm
12:06 27.2 °C 16.8 °C 1018.2 hPa East 4.3 km/h 9.7 km/h 53 % 0.0 mm
12:11 27.3 °C 16.9 °C 1018.2 hPa East 5.0 km/h 9.7 km/h 53 % 0.0 mm
12:16 27.3 °C 16.9 °C 1018.2 hPa ESE 4.2 km/h 8.7 km/h 53 % 0.0 mm
12:21 27.4 °C 17.0 °C 1018.2 hPa ESE 4.3 km/h 9.0 km/h 53 % 0.0 mm
12:26 27.5 °C 17.4 °C 1018.2 hPa ESE 5.6 km/h 15.8 km/h 54 % 0.0 mm
12:31 27.6 °C 17.2 °C 1018.2 hPa East 5.6 km/h 15.8 km/h 53 % 0.0 mm
12:36 27.7 °C 17.3 °C 1018.2 hPa ESE 4.7 km/h 9.0 km/h 53 % 0.0 mm
12:41 27.7 °C 17.3 °C 1018.2 hPa East 5.0 km/h 9.3 km/h 53 % 0.0 mm
12:46 27.9 °C 17.7 °C 1018.2 hPa East 5.0 km/h 9.3 km/h 54 % 0.0 mm
12:51 28.2 °C 18.0 °C 1018.2 hPa SE 6.1 km/h 16.3 km/h 54 % 0.0 mm
12:56 28.2 °C 17.4 °C 1018.2 hPa SSE 6.9 km/h 16.3 km/h 52 % 0.0 mm
13:01 27.8 °C 17.3 °C 1018.2 hPa ESE 4.2 km/h 9.3 km/h 53 % 0.0 mm
13:06 27.8 °C 17.3 °C 1018.2 hPa ENE 4.5 km/h 11.9 km/h 53 % 0.0 mm
13:11 27.9 °C 17.4 °C 1018.2 hPa East 6.3 km/h 11.9 km/h 53 % 0.0 mm
13:16 27.9 °C 17.4 °C 1018.2 hPa ESE 6.4 km/h 12.6 km/h 53 % 0.0 mm
13:21 27.9 °C 17.4 °C 1018.2 hPa ESE 6.4 km/h 12.6 km/h 53 % 0.0 mm
13:26 28.1 °C 17.6 °C 1018.2 hPa ESE 7.1 km/h 13.0 km/h 53 % 0.0 mm
13:31 28.0 °C 17.2 °C 1018.2 hPa South 6.9 km/h 13.0 km/h 52 % 0.0 mm
13:36 27.8 °C 17.1 °C 1018.2 hPa SSW 5.5 km/h 9.7 km/h 52 % 0.0 mm
13:37 27.7 °C 16.9 °C 1018.2 hPa South 5.1 km/h 9.7 km/h 52 % 0.0 mm
13:42 27.7 °C 17.3 °C 1018.2 hPa East 4.3 km/h 9.3 km/h 53 % 0.0 mm
13:47 27.7 °C 17.3 °C 1018.2 hPa ESE 4.2 km/h 12.6 km/h 53 % 0.0 mm
13:52 27.8 °C 17.3 °C 1018.2 hPa SSE 5.1 km/h 12.6 km/h 53 % 0.0 mm
13:57 27.7 °C 17.3 °C 1018.2 hPa SE 6.0 km/h 9.7 km/h 53 % 0.0 mm
14:02 27.8 °C 17.3 °C 1018.2 hPa ESE 5.8 km/h 11.6 km/h 53 % 0.0 mm
14:07 27.9 °C 17.4 °C 1018.2 hPa ESE 6.6 km/h 12.6 km/h 53 % 0.0 mm
14:12 28.1 °C 17.6 °C 1018.2 hPa SE 6.9 km/h 12.6 km/h 53 % 0.0 mm
14:17 28.4 °C 17.9 °C 1018.2 hPa SSE 7.1 km/h 12.2 km/h 53 % 0.0 mm
14:22 28.7 °C 17.9 °C 1018.2 hPa SSE 7.6 km/h 14.0 km/h 52 % 0.0 mm
14:27 28.8 °C 17.9 °C 1018.2 hPa SSE 7.4 km/h 14.0 km/h 52 % 0.0 mm
14:32 29.0 °C 17.5 °C 1016.8 hPa SSE 6.6 km/h 13.0 km/h 50 % 0.0 mm
14:37 28.9 °C 17.4 °C 1016.8 hPa SE 6.6 km/h 15.4 km/h 50 % 0.0 mm
14:42 29.0 °C 17.2 °C 1016.8 hPa SE 7.2 km/h 15.4 km/h 49 % 0.0 mm
14:47 29.1 °C 17.3 °C 1016.8 hPa SE 8.2 km/h 19.5 km/h 49 % 0.0 mm
14:52 29.2 °C 17.1 °C 1016.8 hPa SE 7.6 km/h 19.5 km/h 48 % 0.0 mm
14:57 29.3 °C 17.2 °C 1016.8 hPa ESE 5.1 km/h 12.6 km/h 48 % 0.0 mm
15:02 29.4 °C 16.9 °C 1016.8 hPa ESE 4.7 km/h 13.0 km/h 47 % 0.0 mm
15:07 29.1 °C 16.6 °C 1016.8 hPa SE 6.1 km/h 13.7 km/h 47 % 0.0 mm
15:12 29.1 °C 15.9 °C 1016.8 hPa SE 7.1 km/h 13.7 km/h 45 % 0.0 mm
15:17 28.9 °C 16.4 °C 1016.8 hPa SE 5.8 km/h 13.0 km/h 47 % 0.0 mm
15:22 28.6 °C 16.2 °C 1016.8 hPa SE 3.4 km/h 9.0 km/h 47 % 0.0 mm
15:27 28.5 °C 16.1 °C 1016.8 hPa ESE 3.9 km/h 10.1 km/h 47 % 0.0 mm
15:32 28.2 °C 15.8 °C 1016.8 hPa East 5.1 km/h 10.1 km/h 47 % 0.0 mm
15:37 27.8 °C 15.8 °C 1016.8 hPa East 5.1 km/h 10.1 km/h 48 % 0.0 mm
15:43 27.4 °C 15.1 °C 1016.8 hPa East 4.7 km/h 10.1 km/h 47 % 0.0 mm
15:48 27.0 °C 15.4 °C 1016.8 hPa ENE 4.5 km/h 14.8 km/h 49 % 0.0 mm
15:53 26.7 °C 15.7 °C 1016.8 hPa NE 5.6 km/h 14.8 km/h 51 % 0.0 mm
15:58 26.1 °C 16.1 °C 1016.8 hPa NNE 4.5 km/h 10.1 km/h 54 % 0.0 mm
16:03 25.4 °C 17.1 °C 1016.8 hPa NNE 4.0 km/h 6.9 km/h 60 % 0.3 mm
16:08 24.6 °C 18.1 °C 1016.8 hPa NNE 4.3 km/h 6.9 km/h 67 % 2.8 mm
16:13 24.0 °C 17.9 °C 1016.8 hPa North 3.4 km/h 5.5 km/h 69 % 5.1 mm
16:18 23.4 °C 18.1 °C 1018.2 hPa NNW 3.2 km/h 6.4 km/h 72 % 5.8 mm
16:23 23.1 °C 18.2 °C 1018.2 hPa North 3.5 km/h 6.9 km/h 74 % 6.3 mm
16:28 22.7 °C 18.4 °C 1018.2 hPa NNE 3.2 km/h 6.9 km/h 77 % 6.6 mm
16:33 22.4 °C 17.7 °C 1018.2 hPa ENE 2.9 km/h 9.0 km/h 75 % 7.1 mm
16:39 22.3 °C 17.9 °C 1018.2 hPa SE 4.3 km/h 14.3 km/h 76 % 7.4 mm
16:44 21.9 °C 17.5 °C 1018.2 hPa SE 8.7 km/h 20.1 km/h 76 % 7.4 mm
16:49 21.4 °C 15.9 °C 1015.1 hPa SE 9.2 km/h 20.1 km/h 71 % 7.6 mm
16:54 20.9 °C 16.3 °C 1015.1 hPa ENE 5.8 km/h 15.8 km/h 75 % 7.6 mm
16:59 20.7 °C 16.3 °C 1015.1 hPa NNW 4.8 km/h 11.6 km/h 76 % 7.6 mm
17:04 20.4 °C 16.8 °C 1016.8 hPa NW 3.9 km/h 13.0 km/h 80 % 6.9 mm
17:09 20.2 °C 16.4 °C 1016.8 hPa WNW 4.8 km/h 13.0 km/h 79 % 4.8 mm
17:14 20.1 °C 16.6 °C 1016.8 hPa West 6.9 km/h 9.7 km/h 80 % 2.5 mm
17:19 20.0 °C 16.4 °C 1016.8 hPa West 5.5 km/h 10.1 km/h 80 % 1.5 mm
17:24 20.0 °C 16.6 °C 1016.8 hPa SW 5.5 km/h 10.1 km/h 81 % 1.5 mm
17:29 19.9 °C 16.7 °C 1016.8 hPa SSE 6.3 km/h 12.6 km/h 82 % 1.0 mm
17:34 19.9 °C 16.9 °C 1018.2 hPa South 5.1 km/h 12.6 km/h 83 % 0.8 mm
17:39 19.9 °C 17.1 °C 1018.2 hPa South 3.4 km/h 6.4 km/h 84 % 0.3 mm
17:44 19.9 °C 17.3 °C 1018.2 hPa SSE 2.6 km/h 5.5 km/h 85 % 0.3 mm
17:49 20.0 °C 17.4 °C 1018.2 hPa South 2.1 km/h 4.7 km/h 85 % 0.3 mm
17:54 20.0 °C 17.4 °C 1018.2 hPa East 1.0 km/h 4.3 km/h 85 % 0.3 mm
17:59 20.1 °C 17.7 °C 1018.2 hPa South 2.6 km/h 10.1 km/h 86 % 0.3 mm
18:04 20.2 °C 17.8 °C 1018.2 hPa South 5.0 km/h 10.1 km/h 86 % 0.0 mm
18:09 20.3 °C 17.7 °C 1018.2 hPa South 5.1 km/h 9.3 km/h 85 % 0.0 mm
18:14 20.3 °C 17.9 °C 1018.2 hPa South 4.3 km/h 9.3 km/h 86 % 0.0 mm
18:19 20.3 °C 17.9 °C 1018.2 hPa SW 3.2 km/h 5.8 km/h 86 % 0.0 mm
18:24 20.3 °C 17.9 °C 1018.2 hPa SSW 4.2 km/h 9.7 km/h 86 % 0.0 mm
18:29 20.3 °C 17.9 °C 1018.2 hPa SSW 6.0 km/h 9.7 km/h 86 % 0.0 mm
18:34 20.2 °C 17.9 °C 1018.2 hPa SSW 6.8 km/h 11.9 km/h 87 % 0.0 mm
18:39 20.2 °C 17.8 °C 1018.2 hPa South 5.0 km/h 11.9 km/h 86 % 0.0 mm
18:44 20.1 °C 17.9 °C 1018.2 hPa ESE 2.1 km/h 7.6 km/h 87 % 0.0 mm
18:49 20.2 °C 17.8 °C 1016.8 hPa SE 2.9 km/h 6.9 km/h 86 % 0.0 mm
18:54 20.1 °C 17.9 °C 1016.8 hPa SW 5.3 km/h 10.1 km/h 87 % 0.0 mm
18:59 19.9 °C 17.8 °C 1016.8 hPa West 4.8 km/h 10.1 km/h 88 % 0.0 mm
19:04 19.9 °C 17.8 °C 1018.2 hPa WNW 2.9 km/h 4.3 km/h 88 % 0.0 mm
19:09 19.9 °C 17.8 °C 1018.2 hPa West 1.1 km/h 4.3 km/h 88 % 0.0 mm
19:14 19.8 °C 17.9 °C 1018.2 hPa WNW 0.3 km/h 5.0 km/h 89 % 0.0 mm
19:19 19.7 °C 17.8 °C 1018.2 hPa WSW 1.8 km/h 6.1 km/h 89 % 0.0 mm
19:24 19.6 °C 17.7 °C 1018.2 hPa SW 2.1 km/h 6.1 km/h 89 % 0.0 mm
19:29 19.5 °C 17.6 °C 1018.2 hPa South 0.8 km/h 4.0 km/h 89 % 0.0 mm
19:34 19.4 °C 17.6 °C 1018.2 hPa WSW 2.3 km/h 10.1 km/h 89 % 0.0 mm
19:39 19.4 °C 17.6 °C 1018.2 hPa West 3.7 km/h 10.1 km/h 89 % 0.0 mm
19:44 19.3 °C 17.6 °C 1018.2 hPa WNW 2.7 km/h 5.0 km/h 90 % 0.0 mm
19:49 19.2 °C 17.5 °C 1016.8 hPa WNW 1.1 km/h 5.0 km/h 90 % 0.0 mm
19:54 19.1 °C 17.4 °C 1016.8 hPa Calm   1.4 km/h 90 % 0.0 mm
19:59 19.1 °C 17.4 °C 1016.8 hPa Calm     90 % 0.0 mm
20:04 19.0 °C 17.3 °C 1018.2 hPa Calm     90 % 0.0 mm
20:09 19.0 °C 17.3 °C 1018.2 hPa Calm     90 % 0.0 mm
20:14 18.9 °C 17.4 °C 1018.2 hPa Calm     91 % 0.0 mm
20:19 18.9 °C 17.4 °C 1018.2 hPa Calm     91 % 0.0 mm
20:24 18.8 °C 17.3 °C 1018.2 hPa Calm     91 % 0.0 mm
20:29 18.8 °C 17.3 °C 1018.2 hPa Calm     91 % 0.0 mm
20:34 18.7 °C 17.2 °C 1018.8 hPa Calm     91 % 0.0 mm
20:39 18.7 °C 17.2 °C 1018.8 hPa Calm     91 % 0.0 mm
20:44 18.6 °C 17.1 °C 1018.8 hPa West 0.3 km/h 3.2 km/h 91 % 0.0 mm
20:49 18.6 °C 17.3 °C 1018.8 hPa West 0.3 km/h 3.2 km/h 92 % 0.0 mm
20:54 18.6 °C 17.3 °C 1018.8 hPa Calm     92 % 0.0 mm
20:59 18.6 °C 17.3 °C 1018.8 hPa Calm     92 % 0.0 mm
21:05 18.5 °C 17.2 °C 1018.8 hPa Calm     92 % 0.0 mm
21:10 18.5 °C 17.2 °C 1018.8 hPa Calm     92 % 0.0 mm
21:20 18.4 °C 17.1 °C 1018.8 hPa Calm     92 % 0.0 mm
21:25 18.4 °C 17.1 °C 1018.8 hPa SE 0.2 km/h 3.2 km/h 92 % 0.0 mm
21:30 18.4 °C 17.1 °C 1018.8 hPa SE 0.3 km/h 3.2 km/h 92 % 0.0 mm
21:35 18.4 °C 17.1 °C 1018.8 hPa East 0.2 km/h 1.8 km/h 92 % 0.0 mm
21:40 18.4 °C 17.1 °C 1018.8 hPa WNW 0.2 km/h 2.6 km/h 92 % 0.0 mm
21:45 18.4 °C 17.2 °C 1018.8 hPa WNW 0.8 km/h 4.0 km/h 93 % 0.0 mm
21:50 18.3 °C 17.2 °C 1018.8 hPa WNW 0.6 km/h 4.0 km/h 93 % 0.0 mm
21:55 18.3 °C 17.2 °C 1018.8 hPa Calm     93 % 0.0 mm
22:00 18.3 °C 17.2 °C 1018.8 hPa Calm     93 % 0.0 mm
22:05 18.2 °C 17.1 °C 1019.9 hPa Calm     93 % 0.0 mm
22:10 18.2 °C 17.1 °C 1019.9 hPa Calm     93 % 0.0 mm
22:15 18.2 °C 17.1 °C 1019.9 hPa Calm     93 % 0.0 mm
22:20 18.2 °C 16.9 °C 1019.9 hPa Calm     92 % 0.0 mm
22:25 18.1 °C 16.9 °C 1019.9 hPa Calm     93 % 0.0 mm
22:30 18.1 °C 16.9 °C 1019.9 hPa Calm     93 % 0.0 mm
22:35 18.1 °C 16.9 °C 1019.9 hPa Calm     93 % 0.0 mm
22:40 18.1 °C 16.9 °C 1019.9 hPa Calm     93 % 0.0 mm
22:45 18.2 °C 17.1 °C 1019.9 hPa Calm     93 % 0.0 mm
22:50 18.1 °C 16.9 °C 1019.9 hPa Calm     93 % 0.0 mm
22:55 18.1 °C 16.9 °C 1019.9 hPa Calm   2.1 km/h 93 % 0.0 mm
23:00 18.0 °C 16.8 °C 1019.9 hPa Calm   2.1 km/h 93 % 0.0 mm
23:05 18.0 °C 16.8 °C 1019.9 hPa Calm     93 % 0.0 mm
23:10 18.0 °C 16.8 °C 1019.9 hPa Calm     93 % 0.0 mm
23:15 18.0 °C 16.8 °C 1019.9 hPa Calm     93 % 0.0 mm
23:20 17.9 °C 16.9 °C 1019.9 hPa WNW 0.3 km/h 4.0 km/h 94 % 0.0 mm
23:21 17.8 °C 16.8 °C 1019.9 hPa WNW 0.8 km/h 4.0 km/h 94 % 0.0 mm
23:26 17.7 °C 16.6 °C 1019.9 hPa WNW 1.1 km/h 4.0 km/h 93 % 0.0 mm
23:31 17.7 °C 16.6 °C 1019.9 hPa WNW 0.3 km/h 2.6 km/h 93 % 0.0 mm
23:36 17.7 °C 16.7 °C 1019.9 hPa Calm     94 % 0.0 mm
23:41 17.6 °C 16.4 °C 1019.9 hPa WNW 0.6 km/h 3.5 km/h 93 % 0.0 mm
23:46 17.5 °C 16.3 °C 1019.9 hPa WNW 0.8 km/h 4.3 km/h 93 % 0.0 mm
23:51 17.4 °C 16.3 °C 1019.9 hPa WNW 1.0 km/h 4.3 km/h 93 % 0.0 mm
23:56 17.3 °C 16.2 °C 1019.9 hPa WNW 1.3 km/h 5.0 km/h 93 % 0.0 mm
Vremenska postaja Senovo
Podatki zbrani iz Weather Underground - 3 mb

Script developed by  Jim McMurry - jmcmurry@mwt.net Adapted for the template by  Wim van der Kuil - Leuven-Template.eu

Vremenski podatki so objavljeni na:

WeatherCloud

Weather Underground

AWEKAS

HAMweather, WeatherForYou, PWS Weather

MapView

Geostik

Slovenia weather network

Oprema, ki se uporablja:

Vremenski program
Cumulus

Cumulus